RCH851 EPRZ-EDDS
Flight info
| Callsign | RCH851 |
|---|---|
| Flight time | N/A |
| Altitude | 32000 |
| Route | GOVRI T738 LUVOD Q10 PADKA DCT OKG DCT AMOSA N869 DKB Z818 GEBNO GEBNO1W |
| Aircraft | C17/H-SDE1E2FGHIJ5RTUWXY/LB1D1 |
Departure
| Time | 2026-05-04 13:39 |
|---|---|
| Airport | Rzeszów-Jasionka Airport (EPRZ) |
Arrival
| Time | N/A |
|---|---|
| Airport | Stuttgart Airport (EDDS) |
| Time | Latitude | Longitude | Altitude | Speed | Heading |
|---|---|---|---|---|---|
| 2026-05-04 13:29 | 50.11266 | 22.00820 | 698 ft | 0 kts | 195° |
| 2026-05-04 13:34 | 50.11241 | 22.00817 | 696 ft | 9 kts | 167° |
| 2026-05-04 13:34 | 50.11175 | 22.00918 | 697 ft | 14 kts | 127° |
| 2026-05-04 13:34 | 50.11081 | 22.01098 | 697 ft | 24 kts | 126° |
| 2026-05-04 13:34 | 50.11008 | 22.01295 | 698 ft | 17 kts | 96° |
| 2026-05-04 13:35 | 50.11008 | 22.01506 | 695 ft | 22 kts | 91° |
| 2026-05-04 13:35 | 50.10999 | 22.02003 | 693 ft | 23 kts | 91° |
| 2026-05-04 13:35 | 50.10996 | 22.02251 | 689 ft | 25 kts | 91° |
| 2026-05-04 13:36 | 50.10991 | 22.02569 | 690 ft | 29 kts | 92° |
| 2026-05-04 13:36 | 50.10985 | 22.02875 | 689 ft | 27 kts | 92° |
| 2026-05-04 13:36 | 50.10978 | 22.03161 | 691 ft | 26 kts | 92° |
| 2026-05-04 13:36 | 50.10976 | 22.03477 | 688 ft | 38 kts | 90° |
| 2026-05-04 13:37 | 50.10970 | 22.03892 | 689 ft | 38 kts | 91° |
| 2026-05-04 13:37 | 50.10963 | 22.04278 | 680 ft | 33 kts | 92° |
| 2026-05-04 13:37 | 50.10955 | 22.04550 | 688 ft | 11 kts | 93° |
| 2026-05-04 13:37 | 50.10961 | 22.04582 | 688 ft | 2 kts | 30° |
| 2026-05-04 13:38 | 50.10971 | 22.04575 | 683 ft | 3 kts | 314° |
| 2026-05-04 13:38 | 50.10968 | 22.04531 | 684 ft | 3 kts | 256° |
| 2026-05-04 13:38 | 50.10969 | 22.04357 | 687 ft | 41 kts | 272° |
| 2026-05-04 13:38 | 50.10976 | 22.03625 | 690 ft | 91 kts | 270° |
| 2026-05-04 13:39 | 50.10992 | 22.02445 | 691 ft | 124 kts | 268° |
| 2026-05-04 13:39 | 50.11003 | 22.01097 | 1019 ft | 118 kts | 267° |
| 2026-05-04 13:39 | 50.11021 | 21.99785 | 1233 ft | 126 kts | 268° |
| 2026-05-04 13:39 | 50.11038 | 21.98297 | 1320 ft | 149 kts | 267° |
| 2026-05-04 13:40 | 50.11034 | 21.96514 | 1455 ft | 196 kts | 266° |
| 2026-05-04 13:40 | 50.11000 | 21.94441 | 2384 ft | 167 kts | 267° |
| 2026-05-04 13:40 | 50.10972 | 21.92957 | 4286 ft | 109 kts | 265° |
| 2026-05-04 13:40 | 50.10950 | 21.91893 | 5482 ft | 101 kts | 265° |
| 2026-05-04 13:41 | 50.10899 | 21.90489 | 5696 ft | 166 kts | 264° |
| 2026-05-04 13:41 | 50.10791 | 21.88505 | 6542 ft | 184 kts | 264° |
| 2026-05-04 13:41 | 50.10679 | 21.86590 | 8212 ft | 175 kts | 263° |
| 2026-05-04 13:42 | 50.10354 | 21.81852 | 8379 ft | 230 kts | 262° |
| 2026-05-04 13:42 | 50.10175 | 21.79366 | 8719 ft | 233 kts | 262° |
| 2026-05-04 13:42 | 50.10024 | 21.76827 | 9213 ft | 238 kts | 268° |
| 2026-05-04 13:42 | 50.10266 | 21.74262 | 9748 ft | 250 kts | 283° |
| 2026-05-04 13:43 | 50.10888 | 21.71503 | 10290 ft | 281 kts | 285° |
| 2026-05-04 13:43 | 50.11379 | 21.68577 | 10796 ft | 278 kts | 277° |
| 2026-05-04 13:43 | 50.11522 | 21.65517 | 11302 ft | 282 kts | 267° |
| 2026-05-04 13:43 | 50.11448 | 21.62408 | 11906 ft | 299 kts | 266° |
| 2026-05-04 13:44 | 50.11425 | 21.59167 | 12685 ft | 299 kts | 270° |
| 2026-05-04 13:44 | 50.11486 | 21.55898 | 13463 ft | 306 kts | 271° |
| 2026-05-04 13:44 | 50.11536 | 21.52558 | 14210 ft | 310 kts | 269° |
| 2026-05-04 13:44 | 50.11553 | 21.49189 | 14932 ft | 310 kts | 269° |
| 2026-05-04 13:45 | 50.11459 | 21.45815 | 15664 ft | 316 kts | 264° |
| 2026-05-04 13:45 | 50.11238 | 21.42379 | 16424 ft | 319 kts | 264° |
| 2026-05-04 13:45 | 50.11059 | 21.38926 | 17187 ft | 322 kts | 266° |
| 2026-05-04 13:45 | 50.10931 | 21.35404 | 17994 ft | 328 kts | 266° |
| 2026-05-04 13:46 | 50.10788 | 21.31818 | 18740 ft | 336 kts | 266° |
| 2026-05-04 13:46 | 50.10613 | 21.28080 | 19480 ft | 360 kts | 266° |
| 2026-05-04 13:46 | 50.10425 | 21.24026 | 20257 ft | 386 kts | 266° |
| 2026-05-04 13:46 | 50.10240 | 21.19815 | 21035 ft | 393 kts | 266° |
| 2026-05-04 13:47 | 50.10052 | 21.15558 | 21817 ft | 404 kts | 266° |
| 2026-05-04 13:47 | 50.09848 | 21.11151 | 22621 ft | 410 kts | 266° |
| 2026-05-04 13:47 | 50.09641 | 21.06715 | 23449 ft | 414 kts | 266° |
| 2026-05-04 13:47 | 50.09433 | 21.02203 | 24159 ft | 422 kts | 266° |
| 2026-05-04 13:48 | 50.09221 | 20.97628 | 24863 ft | 421 kts | 266° |
| 2026-05-04 13:48 | 50.09007 | 20.93112 | 25574 ft | 422 kts | 266° |
| 2026-05-04 13:48 | 50.08783 | 20.88454 | 26331 ft | 436 kts | 266° |
| 2026-05-04 13:48 | 50.08555 | 20.83691 | 27115 ft | 448 kts | 266° |
| 2026-05-04 13:49 | 50.08318 | 20.78780 | 27927 ft | 459 kts | 266° |
| 2026-05-04 13:49 | 50.08076 | 20.73834 | 28730 ft | 454 kts | 266° |
| 2026-05-04 13:49 | 50.07832 | 20.68909 | 29561 ft | 462 kts | 266° |
| 2026-05-04 13:49 | 50.07582 | 20.63859 | 30365 ft | 466 kts | 266° |
| 2026-05-04 13:50 | 50.07338 | 20.59053 | 31063 ft | 428 kts | 266° |
| 2026-05-04 13:50 | 50.07106 | 20.54460 | 31776 ft | 427 kts | 266° |
| 2026-05-04 13:50 | 50.06871 | 20.49773 | 31984 ft | 443 kts | 266° |
| 2026-05-04 13:50 | 50.06624 | 20.44977 | 31988 ft | 442 kts | 266° |
| 2026-05-04 13:51 | 50.06210 | 20.37081 | 31990 ft | 440 kts | 266° |
| 2026-05-04 13:51 | 50.05710 | 20.27547 | 31994 ft | 442 kts | 266° |
| 2026-05-04 13:52 | 50.04858 | 20.11733 | 31996 ft | 442 kts | 266° |
| 2026-05-04 13:53 | 50.04424 | 20.03835 | 31994 ft | 439 kts | 266° |
| 2026-05-04 13:53 | 50.03898 | 19.94364 | 31985 ft | 437 kts | 266° |
| 2026-05-04 13:54 | 50.03096 | 19.80222 | 31990 ft | 437 kts | 266° |
| 2026-05-04 13:55 | 50.02277 | 19.66049 | 32004 ft | 437 kts | 265° |
| 2026-05-04 13:55 | 50.01443 | 19.51936 | 32000 ft | 439 kts | 265° |
| 2026-05-04 13:56 | 50.00877 | 19.42549 | 31997 ft | 433 kts | 265° |
| 2026-05-04 13:57 | 50.00017 | 19.28480 | 32002 ft | 435 kts | 265° |
| 2026-05-04 13:58 | 49.98845 | 19.09764 | 31999 ft | 435 kts | 264° |
| 2026-05-04 13:58 | 49.97952 | 18.95808 | 31996 ft | 439 kts | 264° |
| 2026-05-04 13:59 | 49.97340 | 18.86419 | 32003 ft | 433 kts | 264° |
| 2026-05-04 14:00 | 49.96411 | 18.72353 | 32000 ft | 436 kts | 264° |
| 2026-05-04 14:00 | 49.95475 | 18.58444 | 32003 ft | 437 kts | 264° |
| 2026-05-04 14:01 | 49.94834 | 18.49072 | 32004 ft | 433 kts | 264° |
| 2026-05-04 14:02 | 49.93862 | 18.35063 | 31991 ft | 435 kts | 264° |
| 2026-05-04 14:02 | 49.93487 | 18.25745 | 32008 ft | 433 kts | 274° |
| 2026-05-04 14:03 | 49.93968 | 18.16350 | 31995 ft | 437 kts | 274° |
| 2026-05-04 14:03 | 49.94378 | 18.07065 | 31990 ft | 430 kts | 274° |
| 2026-05-04 14:04 | 49.95023 | 17.93042 | 31997 ft | 436 kts | 273° |
| 2026-05-04 14:04 | 49.95431 | 17.83694 | 32002 ft | 431 kts | 274° |
| 2026-05-04 14:05 | 49.96041 | 17.69641 | 31999 ft | 433 kts | 273° |
| 2026-05-04 14:06 | 49.96430 | 17.60412 | 31994 ft | 430 kts | 273° |
| 2026-05-04 14:06 | 49.96817 | 17.51077 | 31991 ft | 433 kts | 273° |
| 2026-05-04 14:07 | 49.97196 | 17.41736 | 32000 ft | 432 kts | 273° |
| 2026-05-04 14:07 | 49.97568 | 17.32412 | 31997 ft | 433 kts | 273° |
| 2026-05-04 14:08 | 49.97932 | 17.23066 | 32002 ft | 433 kts | 273° |
| 2026-05-04 14:08 | 49.98288 | 17.13747 | 31994 ft | 432 kts | 273° |
| 2026-05-04 14:09 | 49.98810 | 16.99696 | 31992 ft | 435 kts | 273° |
| 2026-05-04 14:10 | 49.99313 | 16.85721 | 31989 ft | 434 kts | 273° |
| 2026-05-04 14:10 | 49.99642 | 16.76313 | 31991 ft | 434 kts | 273° |
| 2026-05-04 14:11 | 49.99961 | 16.66951 | 31986 ft | 433 kts | 273° |
| 2026-05-04 14:11 | 50.00426 | 16.52943 | 31985 ft | 429 kts | 273° |
| 2026-05-04 14:12 | 50.00724 | 16.43635 | 31984 ft | 433 kts | 272° |
| 2026-05-04 14:13 | 50.01157 | 16.29717 | 31980 ft | 431 kts | 272° |
| 2026-05-04 14:13 | 50.01439 | 16.20385 | 31983 ft | 432 kts | 272° |
| 2026-05-04 14:14 | 50.01712 | 16.11067 | 31985 ft | 428 kts | 272° |
| 2026-05-04 14:14 | 50.02104 | 15.97207 | 31979 ft | 429 kts | 272° |
| 2026-05-04 14:15 | 50.02600 | 15.78765 | 31967 ft | 429 kts | 272° |
| 2026-05-04 14:16 | 50.02953 | 15.64984 | 31972 ft | 426 kts | 272° |
| 2026-05-04 14:17 | 50.03289 | 15.51168 | 31978 ft | 427 kts | 272° |
| 2026-05-04 14:18 | 50.03607 | 15.37403 | 31975 ft | 426 kts | 272° |
| 2026-05-04 14:19 | 50.04008 | 15.19018 | 31974 ft | 425 kts | 271° |
| 2026-05-04 14:19 | 50.04197 | 15.09836 | 31975 ft | 425 kts | 271° |
| 2026-05-04 14:20 | 50.04379 | 15.00622 | 31976 ft | 426 kts | 271° |
| 2026-05-04 14:20 | 50.04553 | 14.91492 | 31975 ft | 425 kts | 271° |
| 2026-05-04 14:21 | 50.04802 | 14.77675 | 31973 ft | 426 kts | 271° |
| 2026-05-04 14:21 | 50.04959 | 14.68468 | 31969 ft | 423 kts | 270° |
| 2026-05-04 14:22 | 50.05106 | 14.59349 | 31968 ft | 425 kts | 270° |
| 2026-05-04 14:22 | 50.05248 | 14.50155 | 31969 ft | 424 kts | 270° |
| 2026-05-04 14:23 | 50.05448 | 14.36378 | 31996 ft | 425 kts | 270° |
| 2026-05-04 14:24 | 50.05571 | 14.27185 | 32003 ft | 424 kts | 270° |
| 2026-05-04 14:24 | 50.05687 | 14.18104 | 31997 ft | 422 kts | 270° |
| 2026-05-04 14:25 | 50.05796 | 14.08945 | 31998 ft | 424 kts | 270° |
| 2026-05-04 14:25 | 50.05945 | 13.95250 | 31977 ft | 423 kts | 270° |
| 2026-05-04 14:26 | 50.06036 | 13.86079 | 31978 ft | 422 kts | 270° |
| 2026-05-04 14:26 | 50.06121 | 13.76935 | 31973 ft | 422 kts | 269° |
| 2026-05-04 14:27 | 50.06196 | 13.67820 | 31963 ft | 423 kts | 269° |
| 2026-05-04 14:27 | 50.06266 | 13.58633 | 31965 ft | 422 kts | 269° |
| 2026-05-04 14:28 | 50.06328 | 13.49501 | 31961 ft | 423 kts | 269° |
| 2026-05-04 14:28 | 50.06383 | 13.40348 | 31961 ft | 422 kts | 269° |
| 2026-05-04 14:29 | 50.06471 | 13.22102 | 31956 ft | 423 kts | 269° |
| 2026-05-04 14:30 | 50.06505 | 13.12948 | 31958 ft | 422 kts | 269° |
| 2026-05-04 14:31 | 50.06542 | 12.99210 | 31984 ft | 422 kts | 269° |
| 2026-05-04 14:32 | 50.06566 | 12.80983 | 31991 ft | 421 kts | 268° |
| 2026-05-04 14:32 | 50.06566 | 12.71861 | 31989 ft | 422 kts | 268° |
| 2026-05-04 14:33 | 50.06560 | 12.62723 | 31980 ft | 421 kts | 268° |
| 2026-05-04 14:33 | 50.06547 | 12.53610 | 31975 ft | 422 kts | 268° |
| 2026-05-04 14:34 | 50.06515 | 12.44464 | 31973 ft | 422 kts | 266° |
| 2026-05-04 14:34 | 50.06054 | 12.40030 | 31971 ft | 419 kts | 252° |
| 2026-05-04 14:34 | 50.04940 | 12.35865 | 31978 ft | 419 kts | 243° |
| 2026-05-04 14:35 | 50.02189 | 12.27808 | 31975 ft | 420 kts | 242° |
| 2026-05-04 14:35 | 49.99468 | 12.19794 | 31959 ft | 420 kts | 242° |
| 2026-05-04 14:36 | 49.96715 | 12.11727 | 31965 ft | 422 kts | 242° |
| 2026-05-04 14:36 | 49.93969 | 12.03700 | 31965 ft | 421 kts | 242° |
| 2026-05-04 14:37 | 49.91221 | 11.95693 | 31996 ft | 422 kts | 242° |
| 2026-05-04 14:37 | 49.88467 | 11.87695 | 31997 ft | 421 kts | 242° |
| 2026-05-04 14:38 | 49.85704 | 11.79693 | 32014 ft | 420 kts | 242° |
| 2026-05-04 14:38 | 49.82937 | 11.71710 | 32010 ft | 420 kts | 242° |
| 2026-05-04 14:39 | 49.80164 | 11.63732 | 31999 ft | 421 kts | 242° |
| 2026-05-04 14:39 | 49.77853 | 11.57101 | 31993 ft | 421 kts | 242° |
| 2026-05-04 14:40 | 49.73672 | 11.45149 | 31978 ft | 421 kts | 242° |
| 2026-05-04 14:40 | 49.70884 | 11.37212 | 31974 ft | 420 kts | 241° |
| 2026-05-04 14:41 | 49.68088 | 11.29274 | 31978 ft | 421 kts | 241° |
| 2026-05-04 14:42 | 49.62496 | 11.13476 | 31969 ft | 423 kts | 241° |
| 2026-05-04 14:42 | 49.61076 | 11.09475 | 31622 ft | 426 kts | 241° |
| 2026-05-04 14:42 | 49.59658 | 11.05491 | 31218 ft | 419 kts | 241° |
| 2026-05-04 14:43 | 49.58270 | 11.01595 | 30803 ft | 406 kts | 241° |
| 2026-05-04 14:43 | 49.56892 | 10.97738 | 30407 ft | 421 kts | 240° |
| 2026-05-04 14:43 | 49.55470 | 10.93760 | 30027 ft | 425 kts | 240° |
| 2026-05-04 14:43 | 49.54050 | 10.89792 | 29587 ft | 418 kts | 240° |
| 2026-05-04 14:44 | 49.52607 | 10.85943 | 29144 ft | 415 kts | 238° |
| 2026-05-04 14:44 | 49.51109 | 10.82135 | 28589 ft | 415 kts | 238° |
| 2026-05-04 14:44 | 49.49639 | 10.78330 | 28086 ft | 410 kts | 239° |
| 2026-05-04 14:44 | 49.48218 | 10.74546 | 27581 ft | 413 kts | 239° |
| 2026-05-04 14:45 | 49.46725 | 10.70605 | 27082 ft | 434 kts | 239° |
| 2026-05-04 14:45 | 49.45182 | 10.66605 | 26585 ft | 432 kts | 239° |
| 2026-05-04 14:45 | 49.43703 | 10.62768 | 26100 ft | 426 kts | 239° |
| 2026-05-04 14:45 | 49.42193 | 10.58825 | 25605 ft | 425 kts | 239° |
| 2026-05-04 14:46 | 49.40707 | 10.54948 | 25122 ft | 424 kts | 239° |
| 2026-05-04 14:46 | 49.39213 | 10.51070 | 24640 ft | 420 kts | 238° |
| 2026-05-04 14:46 | 49.37723 | 10.47216 | 24189 ft | 417 kts | 238° |
| 2026-05-04 14:46 | 49.36250 | 10.43404 | 23711 ft | 415 kts | 238° |
| 2026-05-04 14:47 | 49.34779 | 10.39598 | 23197 ft | 414 kts | 238° |
| 2026-05-04 14:47 | 49.33310 | 10.35806 | 22656 ft | 410 kts | 238° |
| 2026-05-04 14:47 | 49.31859 | 10.32066 | 22126 ft | 405 kts | 238° |
| 2026-05-04 14:47 | 49.30424 | 10.28379 | 21603 ft | 403 kts | 238° |
| 2026-05-04 14:48 | 49.28928 | 10.24683 | 21112 ft | 424 kts | 237° |
| 2026-05-04 14:48 | 49.27266 | 10.20716 | 20640 ft | 448 kts | 237° |
| 2026-05-04 14:48 | 49.25649 | 10.16780 | 20127 ft | 422 kts | 237° |
| 2026-05-04 14:48 | 49.24159 | 10.13078 | 19645 ft | 397 kts | 237° |
| 2026-05-04 14:49 | 49.22752 | 10.09624 | 19143 ft | 377 kts | 237° |
| 2026-05-04 14:49 | 49.21373 | 10.06291 | 18654 ft | 367 kts | 237° |
| 2026-05-04 14:49 | 49.20004 | 10.02976 | 18173 ft | 371 kts | 237° |
| 2026-05-04 14:49 | 49.18631 | 9.99628 | 17640 ft | 368 kts | 237° |
| 2026-05-04 14:50 | 49.17278 | 9.96331 | 17115 ft | 365 kts | 237° |
| 2026-05-04 14:50 | 49.15940 | 9.93092 | 16607 ft | 364 kts | 237° |
| 2026-05-04 14:50 | 49.14575 | 9.89789 | 16095 ft | 360 kts | 237° |
| 2026-05-04 14:50 | 49.13264 | 9.86615 | 15607 ft | 358 kts | 237° |
| 2026-05-04 14:51 | 49.11936 | 9.83406 | 15111 ft | 355 kts | 237° |
| 2026-05-04 14:51 | 49.10633 | 9.80213 | 14629 ft | 354 kts | 239° |
| 2026-05-04 14:51 | 49.09458 | 9.76917 | 14140 ft | 354 kts | 242° |
| 2026-05-04 14:51 | 49.08344 | 9.73585 | 13686 ft | 351 kts | 242° |
| 2026-05-04 14:52 | 49.07184 | 9.70326 | 13182 ft | 346 kts | 239° |
| 2026-05-04 14:52 | 49.06004 | 9.67146 | 12927 ft | 345 kts | 240° |
| 2026-05-04 14:52 | 49.04838 | 9.63933 | 12678 ft | 346 kts | 240° |
| 2026-05-04 14:52 | 49.03693 | 9.60715 | 12409 ft | 344 kts | 240° |
| 2026-05-04 14:53 | 49.02548 | 9.57528 | 12150 ft | 343 kts | 240° |
| 2026-05-04 14:53 | 49.01390 | 9.54341 | 11892 ft | 343 kts | 239° |
| 2026-05-04 14:53 | 49.00249 | 9.51198 | 11630 ft | 340 kts | 239° |
| 2026-05-04 14:53 | 48.99101 | 9.48023 | 11382 ft | 340 kts | 239° |
| 2026-05-04 14:54 | 48.97956 | 9.44864 | 11146 ft | 340 kts | 239° |
| 2026-05-04 14:54 | 48.96845 | 9.41809 | 10771 ft | 339 kts | 239° |
| 2026-05-04 14:54 | 48.95741 | 9.38773 | 10461 ft | 324 kts | 239° |
| 2026-05-04 14:54 | 48.94743 | 9.36024 | 10244 ft | 301 kts | 239° |
| 2026-05-04 14:55 | 48.93871 | 9.33627 | 10055 ft | 284 kts | 238° |
| 2026-05-04 14:55 | 48.92941 | 9.31083 | 9786 ft | 271 kts | 238° |
| 2026-05-04 14:55 | 48.92023 | 9.28580 | 9357 ft | 272 kts | 238° |
| 2026-05-04 14:55 | 48.91101 | 9.26060 | 8971 ft | 272 kts | 238° |
| 2026-05-04 14:56 | 48.90184 | 9.23551 | 8553 ft | 270 kts | 238° |
| 2026-05-04 14:56 | 48.89284 | 9.21089 | 8328 ft | 264 kts | 239° |
| 2026-05-04 14:56 | 48.88388 | 9.18648 | 8062 ft | 266 kts | 239° |
| 2026-05-04 14:56 | 48.87485 | 9.16190 | 7808 ft | 268 kts | 239° |
| 2026-05-04 14:57 | 48.86582 | 9.13725 | 7627 ft | 264 kts | 239° |
| 2026-05-04 14:57 | 48.85682 | 9.11274 | 7490 ft | 267 kts | 239° |
| 2026-05-04 14:57 | 48.84775 | 9.08818 | 7380 ft | 266 kts | 239° |
| 2026-05-04 14:57 | 48.83876 | 9.06372 | 7255 ft | 266 kts | 239° |
| 2026-05-04 14:58 | 48.82969 | 9.03910 | 7123 ft | 266 kts | 239° |
| 2026-05-04 14:58 | 48.82076 | 9.01492 | 7025 ft | 265 kts | 239° |
| 2026-05-04 14:58 | 48.81167 | 8.99031 | 6991 ft | 265 kts | 239° |
| 2026-05-04 14:58 | 48.80271 | 8.96608 | 6985 ft | 268 kts | 238° |
| 2026-05-04 14:59 | 48.79365 | 8.94158 | 6975 ft | 266 kts | 239° |
| 2026-05-04 14:59 | 48.78444 | 8.91671 | 6710 ft | 270 kts | 239° |
| 2026-05-04 14:59 | 48.76633 | 8.86787 | 6204 ft | 266 kts | 238° |
| 2026-05-04 15:00 | 48.75724 | 8.84341 | 5941 ft | 265 kts | 238° |
| 2026-05-04 15:00 | 48.74870 | 8.81869 | 5718 ft | 264 kts | 235° |
| 2026-05-04 15:00 | 48.73619 | 8.79784 | 5184 ft | 275 kts | 214° |
| 2026-05-04 15:01 | 48.70118 | 8.79107 | 4656 ft | 248 kts | 166° |
| 2026-05-04 15:01 | 48.68476 | 8.79703 | 4392 ft | 237 kts | 164° |
| 2026-05-04 15:01 | 48.66914 | 8.80325 | 4133 ft | 227 kts | 163° |
| 2026-05-04 15:01 | 48.65597 | 8.81414 | 4011 ft | 213 kts | 132° |
| 2026-05-04 15:02 | 48.64876 | 8.83341 | 4014 ft | 210 kts | 107° |
| 2026-05-04 15:02 | 48.64475 | 8.85498 | 3996 ft | 214 kts | 104° |
| 2026-05-04 15:02 | 48.64097 | 8.87622 | 3988 ft | 206 kts | 104° |
| 2026-05-04 15:02 | 48.63750 | 8.89614 | 3975 ft | 185 kts | 103° |
| 2026-05-04 15:03 | 48.63454 | 8.91427 | 3744 ft | 180 kts | 96° |
| 2026-05-04 15:03 | 48.63606 | 8.93495 | 2790 ft | 209 kts | 68° |
| 2026-05-04 15:03 | 48.64052 | 8.95444 | 2988 ft | 183 kts | 74° |
| 2026-05-04 15:03 | 48.64372 | 8.97172 | 2873 ft | 159 kts | 76° |
| 2026-05-04 15:04 | 48.64598 | 8.98742 | 2633 ft | 150 kts | 78° |